createdAt,value
2017-10-21T00:00:35.920Z,0
2017-10-21T00:01:36.576Z,0
2017-10-21T00:02:36.254Z,0
2017-10-21T00:03:36.260Z,0
2017-10-21T00:04:36.264Z,0
2017-10-21T00:05:36.570Z,0
2017-10-21T00:06:35.938Z,0
2017-10-21T00:07:36.274Z,0
2017-10-21T00:08:36.255Z,0
2017-10-21T00:09:36.564Z,0
2017-10-21T00:10:35.915Z,0
2017-10-21T00:11:36.258Z,0
2017-10-21T00:12:36.240Z,0
2017-10-21T00:13:36.258Z,0
2017-10-21T00:14:36.736Z,0
2017-10-21T00:15:36.579Z,0
2017-10-21T00:16:36.275Z,0
2017-10-21T00:17:36.264Z,0
2017-10-21T00:18:36.568Z,0
2017-10-21T00:19:35.926Z,0
2017-10-21T00:20:35.941Z,0
2017-10-21T00:21:35.924Z,0
2017-10-21T00:22:36.246Z,0
2017-10-21T00:23:36.232Z,0
2017-10-21T00:24:36.560Z,0
2017-10-21T00:25:36.230Z,0
2017-10-21T00:26:36.226Z,0
2017-10-21T00:27:36.585Z,0
2017-10-21T00:28:36.240Z,0
2017-10-21T00:29:36.229Z,0
2017-10-21T00:30:36.239Z,0
2017-10-21T00:31:36.235Z,0
2017-10-21T00:32:36.240Z,0
2017-10-21T00:33:36.232Z,0
2017-10-21T00:34:36.230Z,0
2017-10-21T00:35:35.910Z,0
2017-10-21T00:36:35.906Z,0
2017-10-21T00:37:36.219Z,0
2017-10-21T00:38:36.224Z,0
2017-10-21T00:39:36.223Z,0
2017-10-21T00:40:36.555Z,0
2017-10-21T00:41:35.904Z,0
2017-10-21T00:42:36.555Z,0
2017-10-21T00:43:35.900Z,0
2017-10-21T00:44:36.541Z,0
2017-10-21T00:45:36.784Z,0
2017-10-21T00:46:36.242Z,0
2017-10-21T00:47:36.232Z,0
2017-10-21T00:48:36.230Z,0
2017-10-21T00:49:36.563Z,0
2017-10-21T00:50:35.895Z,0
2017-10-21T00:51:35.890Z,0
2017-10-21T00:52:35.900Z,0
2017-10-21T00:53:36.540Z,0
2017-10-21T00:54:36.237Z,0
2017-10-21T00:55:36.544Z,0
2017-10-21T00:56:36.541Z,0
2017-10-21T00:57:36.214Z,0
2017-10-21T00:58:36.527Z,0
2017-10-21T00:59:36.220Z,0
2017-10-21T01:00:36.407Z,0
2017-10-21T01:01:35.891Z,0
2017-10-21T01:02:36.538Z,0
2017-10-21T01:03:36.211Z,0
2017-10-21T01:04:36.205Z,0
2017-10-21T01:05:36.222Z,0
2017-10-21T01:06:36.198Z,0
2017-10-21T01:07:36.545Z,0
2017-10-21T01:08:36.535Z,0
2017-10-21T01:09:36.532Z,0
2017-10-21T01:10:36.218Z,0
2017-10-21T01:11:35.549Z,0
2017-10-21T01:12:36.540Z,0
2017-10-21T01:13:36.546Z,0
2017-10-21T01:14:36.532Z,0
2017-10-21T01:15:40.461Z,0
2017-10-21T01:16:36.528Z,0
2017-10-21T01:17:36.204Z,0
2017-10-21T01:18:36.222Z,0
2017-10-21T01:19:36.531Z,0
2017-10-21T01:20:36.506Z,0
2017-10-21T01:21:36.190Z,0
2017-10-21T01:22:36.226Z,0
2017-10-21T01:23:35.881Z,0
2017-10-21T01:24:36.207Z,0
2017-10-21T01:25:36.188Z,0
2017-10-21T01:26:36.513Z,0
2017-10-21T01:27:36.512Z,0
2017-10-21T01:28:36.195Z,0
2017-10-21T01:29:36.198Z,0
2017-10-21T01:30:36.527Z,0
2017-10-21T01:31:36.205Z,0
2017-10-21T01:32:36.173Z,0
2017-10-21T01:33:36.510Z,0
2017-10-21T01:34:36.204Z,0
2017-10-21T01:35:36.508Z,0
2017-10-21T01:36:36.505Z,0
2017-10-21T01:37:36.197Z,0
2017-10-21T01:38:36.194Z,0
2017-10-21T01:39:36.522Z,0
2017-10-21T01:40:36.163Z,0
2017-10-21T01:41:36.195Z,0
2017-10-21T01:42:36.503Z,0
2017-10-21T01:43:36.506Z,0
2017-10-21T01:44:35.844Z,0
2017-10-21T01:45:38.732Z,0
2017-10-21T01:46:36.207Z,0
2017-10-21T01:47:36.162Z,0
2017-10-21T01:48:36.160Z,0
2017-10-21T01:49:36.515Z,0
2017-10-21T01:50:36.504Z,0
2017-10-21T01:51:36.486Z,0
2017-10-21T01:52:36.512Z,0
2017-10-21T01:53:36.490Z,0
2017-10-21T01:54:36.166Z,0
2017-10-21T01:55:35.842Z,0
2017-10-21T01:56:35.845Z,0
2017-10-21T01:57:35.835Z,0
2017-10-21T01:58:36.506Z,0
2017-10-21T01:59:36.156Z,0
2017-10-21T02:00:36.497Z,0
2017-10-21T02:01:36.537Z,0
2017-10-21T02:02:36.497Z,0
2017-10-21T02:03:35.846Z,0
2017-10-21T02:04:36.145Z,0
2017-10-21T02:05:36.167Z,0
2017-10-21T02:06:35.833Z,0
2017-10-21T02:07:36.160Z,0
2017-10-21T02:08:36.174Z,0
2017-10-21T02:09:36.173Z,0
2017-10-21T02:10:35.842Z,0
2017-10-21T02:11:36.213Z,0
2017-10-21T02:12:36.146Z,0
2017-10-21T02:13:36.161Z,0
2017-10-21T02:14:36.170Z,0
2017-10-21T02:15:36.147Z,0
2017-10-21T02:16:36.817Z,0
2017-10-21T02:17:36.141Z,0
2017-10-21T02:18:36.145Z,0
2017-10-21T02:19:35.834Z,0
2017-10-21T02:20:35.815Z,0
2017-10-21T02:21:36.148Z,0
2017-10-21T02:22:35.818Z,0
2017-10-21T02:23:36.165Z,0
2017-10-21T02:24:35.630Z,0
2017-10-21T02:25:35.807Z,0
2017-10-21T02:26:36.202Z,0
2017-10-21T02:27:36.494Z,0
2017-10-21T02:28:36.133Z,0
2017-10-21T02:29:36.153Z,0
2017-10-21T02:30:36.175Z,0
2017-10-21T02:31:36.468Z,0
2017-10-21T02:32:35.826Z,0
2017-10-21T02:33:36.471Z,0
2017-10-21T02:34:36.145Z,0
2017-10-21T02:35:36.477Z,0
2017-10-21T02:36:36.153Z,0
2017-10-21T02:37:36.114Z,0
2017-10-21T02:38:35.804Z,0
2017-10-21T02:39:36.151Z,0
2017-10-21T02:40:36.448Z,0
2017-10-21T02:41:36.462Z,0
2017-10-21T02:42:35.484Z,0
2017-10-21T02:43:36.148Z,0
2017-10-21T02:44:36.147Z,0
2017-10-21T02:45:36.454Z,0
2017-10-21T02:46:36.796Z,0
2017-10-21T02:47:36.472Z,0
2017-10-21T02:48:36.142Z,0
2017-10-21T02:49:36.110Z,0
2017-10-21T02:50:36.142Z,0
2017-10-21T02:51:35.458Z,0
2017-10-21T02:52:36.153Z,0
2017-10-21T02:53:36.429Z,0
2017-10-21T02:54:36.111Z,0
2017-10-21T02:55:35.781Z,0
2017-10-21T02:56:35.805Z,0
2017-10-21T02:57:36.424Z,0
2017-10-21T02:58:36.429Z,0
2017-10-21T02:59:36.439Z,0
2017-10-21T03:00:36.421Z,0
2017-10-21T03:01:37.225Z,0
2017-10-21T03:02:36.465Z,0
2017-10-21T03:03:36.431Z,0
2017-10-21T03:04:36.081Z,0
2017-10-21T03:05:36.431Z,0
2017-10-21T03:06:36.107Z,0
2017-10-21T03:07:35.446Z,0
2017-10-21T03:08:36.404Z,0
2017-10-21T03:09:36.436Z,0
2017-10-21T03:10:36.406Z,0
2017-10-21T03:11:36.128Z,0
2017-10-21T03:12:36.443Z,0
2017-10-21T03:13:36.093Z,0
2017-10-21T03:14:36.089Z,0
2017-10-21T03:15:36.075Z,0
2017-10-21T03:16:36.857Z,0
2017-10-21T03:17:35.750Z,0
2017-10-21T03:18:36.391Z,0
2017-10-21T03:19:36.382Z,0
2017-10-21T03:20:35.741Z,0
2017-10-21T03:21:36.400Z,0
2017-10-21T03:22:36.064Z,0
2017-10-21T03:23:35.752Z,0
2017-10-21T03:24:36.419Z,0
2017-10-21T03:25:36.089Z,0
2017-10-21T03:26:36.370Z,0
2017-10-21T03:27:36.055Z,0
2017-10-21T03:28:36.046Z,0
2017-10-21T03:29:36.381Z,0
2017-10-21T03:30:36.047Z,0
2017-10-21T03:31:35.722Z,0
2017-10-21T03:32:36.362Z,0
2017-10-21T03:33:36.372Z,0
2017-10-21T03:34:36.376Z,0
2017-10-21T03:35:36.029Z,0
2017-10-21T03:36:36.046Z,0
2017-10-21T03:37:36.352Z,0
2017-10-21T03:38:36.360Z,0
2017-10-21T03:39:36.366Z,0
2017-10-21T03:40:36.364Z,0
2017-10-21T03:41:36.037Z,0
2017-10-21T03:42:36.039Z,0
2017-10-21T03:43:36.045Z,0
2017-10-21T03:44:35.703Z,0
2017-10-21T03:45:36.032Z,0
2017-10-21T03:46:36.344Z,0
2017-10-21T03:47:39.108Z,0
2017-10-21T03:48:36.345Z,0
2017-10-21T03:49:36.338Z,0
2017-10-21T03:50:36.344Z,0
2017-10-21T03:51:36.019Z,0
2017-10-21T03:52:36.019Z,0
2017-10-21T03:53:35.359Z,0
2017-10-21T03:54:36.342Z,0
2017-10-21T03:55:35.677Z,0
2017-10-21T03:56:35.687Z,0
2017-10-21T03:57:36.327Z,0
2017-10-21T03:58:36.325Z,0
2017-10-21T03:59:36.324Z,0
2017-10-21T04:00:36.339Z,0
2017-10-21T04:01:35.667Z,0
2017-10-21T04:02:35.669Z,0
2017-10-21T04:03:36.311Z,0
2017-10-21T04:04:35.985Z,0
2017-10-21T04:05:36.325Z,0
2017-10-21T04:06:36.304Z,0
2017-10-21T04:07:36.304Z,0
2017-10-21T04:08:36.309Z,0
2017-10-21T04:09:36.298Z,0
2017-10-21T04:10:36.302Z,0
2017-10-21T04:11:35.659Z,0
2017-10-21T04:12:36.298Z,0
2017-10-21T04:13:36.301Z,0
2017-10-21T04:14:36.291Z,0
2017-10-21T04:15:35.655Z,0
2017-10-21T04:16:35.979Z,0
2017-10-21T04:17:39.988Z,0
2017-10-21T04:18:36.290Z,0
2017-10-21T04:19:36.323Z,0
2017-10-21T04:20:36.280Z,0
2017-10-21T04:21:35.640Z,0
2017-10-21T04:22:35.313Z,0
2017-10-21T04:23:35.959Z,0
2017-10-21T04:24:35.320Z,0
2017-10-21T04:25:36.283Z,0
2017-10-21T04:26:36.287Z,0
2017-10-21T04:27:35.631Z,0
2017-10-21T04:28:35.649Z,0
2017-10-21T04:29:36.283Z,0
2017-10-21T04:30:36.313Z,0
2017-10-21T04:31:36.288Z,0
2017-10-21T04:32:35.944Z,0
2017-10-21T04:33:35.632Z,0
2017-10-21T04:34:36.293Z,0
2017-10-21T04:35:36.259Z,0
2017-10-21T04:36:35.302Z,0
2017-10-21T04:37:35.621Z,0
2017-10-21T04:38:35.953Z,0
2017-10-21T04:39:35.943Z,0
2017-10-21T04:40:35.937Z,0
2017-10-21T04:41:35.616Z,0
2017-10-21T04:42:36.269Z,0
2017-10-21T04:43:35.939Z,0
2017-10-21T04:44:36.270Z,0
2017-10-21T04:45:35.611Z,0
2017-10-21T04:46:35.933Z,0
2017-10-21T04:47:36.255Z,0
2017-10-21T04:48:37.078Z,0
2017-10-21T04:49:36.256Z,0
2017-10-21T04:50:36.246Z,0
2017-10-21T04:51:36.242Z,0
2017-10-21T04:52:35.922Z,0
2017-10-21T04:53:35.610Z,0
2017-10-21T04:54:35.933Z,0
2017-10-21T04:55:35.922Z,0
2017-10-21T04:56:35.924Z,0
2017-10-21T04:57:36.252Z,0
2017-10-21T04:58:35.605Z,0
2017-10-21T04:59:35.921Z,0
2017-10-21T05:00:35.915Z,0
2017-10-21T05:01:35.932Z,0
2017-10-21T05:02:35.893Z,0
2017-10-21T05:03:35.925Z,0
2017-10-21T05:04:35.907Z,0
2017-10-21T05:05:35.585Z,0
2017-10-21T05:06:36.250Z,0
2017-10-21T05:07:35.919Z,0
2017-10-21T05:08:35.586Z,0
2017-10-21T05:09:35.906Z,0
2017-10-21T05:10:35.255Z,0
2017-10-21T05:11:36.221Z,0
2017-10-21T05:12:35.900Z,0
2017-10-21T05:13:35.903Z,0
2017-10-21T05:14:36.213Z,0
2017-10-21T05:15:35.898Z,0
2017-10-21T05:16:35.887Z,0
2017-10-21T05:17:35.896Z,0
2017-10-21T05:18:38.542Z,0
2017-10-21T05:19:36.232Z,0
2017-10-21T05:20:35.896Z,0
2017-10-21T05:21:36.218Z,0
2017-10-21T05:22:36.211Z,0
2017-10-21T05:23:35.588Z,0
2017-10-21T05:24:35.886Z,0
2017-10-21T05:25:36.213Z,4
2017-10-21T05:26:36.197Z,4
2017-10-21T05:27:36.196Z,4
2017-10-21T05:28:35.885Z,4
2017-10-21T05:29:35.554Z,4
2017-10-21T05:30:36.197Z,8
2017-10-21T05:31:35.563Z,4
2017-10-21T05:32:36.189Z,4
2017-10-21T05:33:35.561Z,8
2017-10-21T05:34:36.198Z,8
2017-10-21T05:35:35.868Z,12
2017-10-21T05:36:35.220Z,16
2017-10-21T05:37:35.868Z,16
2017-10-21T05:38:36.198Z,24
2017-10-21T05:39:35.534Z,28
2017-10-21T05:40:36.178Z,32
2017-10-21T05:41:35.537Z,40
2017-10-21T05:42:35.542Z,52
2017-10-21T05:43:36.190Z,64
2017-10-21T05:44:35.853Z,76
2017-10-21T05:45:36.181Z,84
2017-10-21T05:46:35.853Z,96
2017-10-21T05:47:35.538Z,108
2017-10-21T05:48:35.890Z,116
2017-10-21T05:49:37.896Z,116
2017-10-21T05:50:36.183Z,116
2017-10-21T05:51:36.174Z,120
2017-10-21T05:52:36.172Z,120
2017-10-21T05:53:36.198Z,124
2017-10-21T05:54:35.843Z,132
2017-10-21T05:55:36.163Z,148
2017-10-21T05:56:36.152Z,176
2017-10-21T05:57:35.836Z,196
2017-10-21T05:58:35.839Z,216
2017-10-21T05:59:35.826Z,244
2017-10-21T06:00:35.833Z,284
2017-10-21T06:01:36.162Z,312
2017-10-21T06:02:36.151Z,332
2017-10-21T06:03:36.155Z,360
2017-10-21T06:04:35.842Z,396
2017-10-21T06:05:36.141Z,444
2017-10-21T06:06:35.831Z,496
2017-10-21T06:07:35.851Z,548
2017-10-21T06:08:35.830Z,600
2017-10-21T06:09:36.169Z,656
2017-10-21T06:10:35.834Z,720
2017-10-21T06:11:36.152Z,796
2017-10-21T06:12:35.819Z,864
2017-10-21T06:13:35.813Z,932
2017-10-21T06:14:35.812Z,1000
2017-10-21T06:15:35.820Z,1060
2017-10-21T06:16:35.498Z,1120
2017-10-21T06:17:35.513Z,1184
2017-10-21T06:18:35.492Z,1236
2017-10-21T06:19:36.269Z,1280
2017-10-21T06:20:36.144Z,1320
2017-10-21T06:21:35.503Z,1380
2017-10-21T06:22:35.804Z,1440
2017-10-21T06:23:35.473Z,1492
2017-10-21T06:24:35.804Z,1532
2017-10-21T06:25:35.798Z,1580
2017-10-21T06:26:35.484Z,1616
2017-10-21T06:27:35.493Z,1664
2017-10-21T06:28:36.111Z,1732
2017-10-21T06:29:35.462Z,1780
2017-10-21T06:30:36.116Z,1824
2017-10-21T06:31:35.788Z,1884
2017-10-21T06:32:35.789Z,1984
2017-10-21T06:33:35.802Z,2104
2017-10-21T06:34:37.039Z,2192
2017-10-21T06:35:35.788Z,2276
2017-10-21T06:36:35.460Z,2296
2017-10-21T06:37:35.785Z,2320
2017-10-21T06:38:35.786Z,2380
2017-10-21T06:39:36.086Z,2440
2017-10-21T06:40:35.772Z,2516
2017-10-21T06:41:35.503Z,2612
2017-10-21T06:42:35.807Z,2740
2017-10-21T06:43:36.097Z,2772
2017-10-21T06:44:35.777Z,2804
2017-10-21T06:45:36.093Z,2816
2017-10-21T06:46:35.764Z,2804
2017-10-21T06:47:36.088Z,2760
2017-10-21T06:48:35.454Z,2856
2017-10-21T06:49:41.447Z,2908
2017-10-21T06:50:35.455Z,2952
2017-10-21T06:51:35.794Z,2916
2017-10-21T06:52:35.778Z,3124
2017-10-21T06:53:35.751Z,2980
2017-10-21T06:54:36.123Z,3044
2017-10-21T06:55:35.467Z,3232
2017-10-21T06:56:35.759Z,3244
2017-10-21T06:57:36.080Z,3240
2017-10-21T06:58:35.455Z,3204
2017-10-21T06:59:35.461Z,3244
2017-10-21T07:00:35.444Z,3792
2017-10-21T07:01:35.764Z,3880
2017-10-21T07:02:36.086Z,3332
2017-10-21T07:03:35.764Z,3976
2017-10-21T07:04:35.751Z,4264
2017-10-21T07:05:35.798Z,3896
2017-10-21T07:06:36.078Z,3852
2017-10-21T07:07:35.770Z,4148
2017-10-21T07:08:36.080Z,4212
2017-10-21T07:09:35.755Z,4080
2017-10-21T07:10:35.765Z,3976
2017-10-21T07:11:35.766Z,3984
2017-10-21T07:12:35.764Z,3836
2017-10-21T07:13:35.454Z,3832
2017-10-21T07:14:36.083Z,3896
2017-10-21T07:15:35.747Z,4064
2017-10-21T07:16:35.765Z,3864
2017-10-21T07:17:36.071Z,4268
2017-10-21T07:18:35.758Z,4100
2017-10-21T07:19:35.437Z,4280
2017-10-21T07:20:37.605Z,3732
2017-10-21T07:21:35.753Z,3360
2017-10-21T07:22:35.766Z,3480
2017-10-21T07:23:36.096Z,3512
2017-10-21T07:24:35.759Z,3004
2017-10-21T07:25:36.103Z,3048
2017-10-21T07:26:35.455Z,2956
2017-10-21T07:27:35.775Z,2804
2017-10-21T07:28:35.777Z,2832
2017-10-21T07:29:35.450Z,3000
2017-10-21T07:30:35.772Z,2864
2017-10-21T07:31:35.452Z,2848
2017-10-21T07:32:36.103Z,2904
2017-10-21T07:33:35.778Z,2972
2017-10-21T07:34:35.769Z,3220
2017-10-21T07:35:35.777Z,3856
2017-10-21T07:36:35.799Z,3572
2017-10-21T07:37:35.780Z,3532
2017-10-21T07:38:35.774Z,3668
2017-10-21T07:39:35.518Z,4068
2017-10-21T07:40:35.776Z,4136
2017-10-21T07:41:35.492Z,3836
2017-10-21T07:42:35.783Z,3956
2017-10-21T07:43:35.447Z,4452
2017-10-21T07:44:35.802Z,4104
2017-10-21T07:45:35.453Z,4244
2017-10-21T07:46:36.094Z,4112
2017-10-21T07:47:35.766Z,3952
2017-10-21T07:48:35.460Z,4280
2017-10-21T07:49:35.786Z,4332
2017-10-21T07:50:41.064Z,3756
2017-10-21T07:51:36.111Z,4068
2017-10-21T07:52:35.167Z,4780
2017-10-21T07:53:35.638Z,5172
2017-10-21T07:54:36.284Z,4712
2017-10-21T07:55:35.866Z,4508
2017-10-21T07:56:35.885Z,4656
2017-10-21T07:57:35.810Z,4540
2017-10-21T07:58:36.289Z,3680
2017-10-21T07:59:35.980Z,4324
2017-10-21T08:00:36.002Z,5148
2017-10-21T08:01:36.450Z,5848
2017-10-21T08:02:36.292Z,6096
2017-10-21T08:03:35.933Z,5528
2017-10-21T08:04:35.911Z,5428
2017-10-21T08:05:35.789Z,5476
2017-10-21T08:06:35.523Z,6380
2017-10-21T08:07:36.131Z,6364
2017-10-21T08:08:35.495Z,6432
2017-10-21T08:09:35.502Z,6468
2017-10-21T08:10:35.793Z,6456
2017-10-21T08:11:35.804Z,6740
2017-10-21T08:12:36.126Z,6912
2017-10-21T08:13:35.813Z,6716
2017-10-21T08:14:35.931Z,5908
2017-10-21T08:15:35.502Z,7056
2017-10-21T08:16:35.193Z,7588
2017-10-21T08:17:35.824Z,7500
2017-10-21T08:18:35.818Z,7316
2017-10-21T08:19:35.837Z,7132
2017-10-21T08:20:35.525Z,6036
2017-10-21T08:21:36.658Z,6012
2017-10-21T08:22:35.522Z,7696
2017-10-21T08:23:35.848Z,6072
2017-10-21T08:24:35.843Z,6032
2017-10-21T08:25:35.207Z,5992
2017-10-21T08:26:35.207Z,5956
2017-10-21T08:27:35.520Z,5840
2017-10-21T08:28:35.524Z,5520
2017-10-21T08:29:36.173Z,5216
2017-10-21T08:30:36.185Z,4868
2017-10-21T08:31:36.172Z,4508
2017-10-21T08:32:35.219Z,4452
2017-10-21T08:33:35.854Z,4548
2017-10-21T08:34:36.191Z,4716
2017-10-21T08:35:35.854Z,4936
2017-10-21T08:36:35.857Z,5076
2017-10-21T08:37:36.206Z,5056
2017-10-21T08:38:35.547Z,5048
2017-10-21T08:39:36.192Z,5000
2017-10-21T08:40:35.869Z,5308
2017-10-21T08:41:35.877Z,5448
2017-10-21T08:42:36.188Z,5640
2017-10-21T08:43:35.549Z,5300
2017-10-21T08:44:35.547Z,5692
2017-10-21T08:45:35.880Z,6548
2017-10-21T08:46:35.869Z,6672
2017-10-21T08:47:35.890Z,5064
2017-10-21T08:48:35.575Z,5000
2017-10-21T08:49:35.929Z,5240
2017-10-21T08:50:35.875Z,7552
2017-10-21T08:51:39.444Z,6944
2017-10-21T08:52:35.892Z,7436
2017-10-21T08:53:35.880Z,7224
2017-10-21T08:54:35.900Z,6772
2017-10-21T08:55:36.213Z,5876
2017-10-21T08:56:35.575Z,5252
2017-10-21T08:57:35.904Z,5376
2017-10-21T08:58:35.904Z,5452
2017-10-21T08:59:35.607Z,5104
2017-10-21T09:00:35.615Z,5504
2017-10-21T09:01:35.583Z,5896
2017-10-21T09:02:35.894Z,6388
2017-10-21T09:03:36.215Z,7272
2017-10-21T09:04:35.578Z,8132
2017-10-21T09:05:36.217Z,8768
2017-10-21T09:06:36.127Z,9212
2017-10-21T09:07:36.219Z,9448
2017-10-21T09:08:35.953Z,6892
2017-10-21T09:09:35.258Z,8780
2017-10-21T09:10:35.909Z,8628
2017-10-21T09:11:35.583Z,8604
2017-10-21T09:12:36.248Z,8724
2017-10-21T09:13:36.232Z,6020
2017-10-21T09:14:35.593Z,5756
2017-10-21T09:15:36.255Z,5580
2017-10-21T09:16:35.906Z,5672
2017-10-21T09:17:35.924Z,5672
2017-10-21T09:18:35.589Z,5724
2017-10-21T09:19:36.243Z,5624
2017-10-21T09:20:35.607Z,5332
2017-10-21T09:21:35.930Z,4904
2017-10-21T09:22:35.612Z,4392
2017-10-21T09:23:35.945Z,4212
2017-10-21T09:24:36.248Z,4048
2017-10-21T09:25:35.935Z,3988
2017-10-21T09:26:35.625Z,4092
2017-10-21T09:27:35.611Z,4312
2017-10-21T09:28:36.258Z,4640
2017-10-21T09:29:35.937Z,4988
2017-10-21T09:30:36.269Z,5284
2017-10-21T09:31:35.631Z,5168
2017-10-21T09:32:35.962Z,4816
2017-10-21T09:33:35.622Z,4936
2017-10-21T09:34:35.951Z,6316
2017-10-21T09:35:36.280Z,5876
2017-10-21T09:36:36.277Z,5768
2017-10-21T09:37:35.956Z,5792
2017-10-21T09:38:36.277Z,5984
2017-10-21T09:39:35.644Z,6176
2017-10-21T09:40:35.963Z,6184
2017-10-21T09:41:35.648Z,6124
2017-10-21T09:42:35.974Z,6272
2017-10-21T09:43:35.972Z,6572
2017-10-21T09:44:35.973Z,6792
2017-10-21T09:45:36.296Z,6848
2017-10-21T09:46:36.297Z,6696
2017-10-21T09:47:36.302Z,6340
2017-10-21T09:48:35.664Z,5868
2017-10-21T09:49:36.304Z,5596
2017-10-21T09:50:35.672Z,5540
2017-10-21T09:51:36.320Z,6064
2017-10-21T09:52:37.739Z,6948
2017-10-21T09:53:36.323Z,6784
2017-10-21T09:54:35.689Z,6900
2017-10-21T09:55:36.326Z,6936
2017-10-21T09:56:36.338Z,6400
2017-10-21T09:57:36.070Z,5880
2017-10-21T09:58:36.402Z,6700
2017-10-21T09:59:36.340Z,7896
2017-10-21T10:00:36.022Z,8024
2017-10-21T10:01:36.017Z,7184
2017-10-21T10:02:35.699Z,6516
2017-10-21T10:03:36.357Z,6348
2017-10-21T10:04:35.744Z,6408
2017-10-21T10:05:36.036Z,7012
2017-10-21T10:06:36.352Z,6872
2017-10-21T10:07:36.040Z,6812
2017-10-21T10:08:36.040Z,6796
2017-10-21T10:09:35.715Z,6928
2017-10-21T10:10:36.369Z,6880
2017-10-21T10:11:36.052Z,6744
2017-10-21T10:12:37.167Z,6772
2017-10-21T10:13:36.058Z,6364
2017-10-21T10:14:36.416Z,6936
2017-10-21T10:15:35.413Z,6616
2017-10-21T10:16:36.421Z,6884
2017-10-21T10:17:36.072Z,6820
2017-10-21T10:18:36.071Z,7444
2017-10-21T10:19:36.074Z,7024
2017-10-21T10:20:36.396Z,7300
2017-10-21T10:21:36.079Z,7616
2017-10-21T10:22:37.561Z,7876
2017-10-21T10:23:36.085Z,7604
2017-10-21T10:24:36.094Z,7756
2017-10-21T10:25:36.408Z,7420
2017-10-21T10:26:36.429Z,7376
2017-10-21T10:27:36.419Z,7412
2017-10-21T10:28:36.097Z,7404
2017-10-21T10:29:35.458Z,7424
2017-10-21T10:30:36.132Z,7320
2017-10-21T10:31:36.112Z,7448
2017-10-21T10:32:36.170Z,7688
2017-10-21T10:33:36.136Z,7852
2017-10-21T10:34:36.455Z,7900
2017-10-21T10:35:36.134Z,7956
2017-10-21T10:36:36.494Z,7984
2017-10-21T10:37:36.382Z,7888
2017-10-21T10:38:36.506Z,7992
2017-10-21T10:39:36.139Z,8000
2017-10-21T10:40:36.483Z,7792
2017-10-21T10:41:36.464Z,7812
2017-10-21T10:42:36.474Z,7836
2017-10-21T10:43:36.521Z,8100
2017-10-21T10:44:35.832Z,8288
2017-10-21T10:45:36.485Z,8264
2017-10-21T10:46:36.165Z,8260
2017-10-21T10:47:36.479Z,8344
2017-10-21T10:48:35.527Z,8824
2017-10-21T10:49:35.856Z,8452
2017-10-21T10:50:36.212Z,8428
2017-10-21T10:51:35.882Z,8488
2017-10-21T10:52:35.867Z,8468
2017-10-21T10:53:36.522Z,8584
2017-10-21T10:54:36.203Z,8856
2017-10-21T10:55:36.224Z,8824
2017-10-21T10:56:36.522Z,9032
2017-10-21T10:57:35.899Z,8980
2017-10-21T10:58:37.885Z,8964
2017-10-21T10:59:36.543Z,9020
2017-10-21T11:00:36.260Z,8776
2017-10-21T11:01:36.236Z,8776
2017-10-21T11:02:36.220Z,8700
2017-10-21T11:03:36.250Z,8708
2017-10-21T11:04:35.932Z,8704
2017-10-21T11:05:36.244Z,8628
2017-10-21T11:06:35.941Z,8744
2017-10-21T11:07:36.586Z,8792
2017-10-21T11:08:36.589Z,8724
2017-10-21T11:09:36.254Z,8540
2017-10-21T11:10:35.996Z,8444
2017-10-21T11:11:36.360Z,8444
2017-10-21T11:12:36.117Z,8212
2017-10-21T11:13:35.962Z,8044
2017-10-21T11:14:36.610Z,7944
2017-10-21T11:15:36.633Z,7856
2017-10-21T11:16:36.381Z,7688
2017-10-21T11:17:35.965Z,7628
2017-10-21T11:18:36.633Z,7608
2017-10-21T11:19:36.292Z,7528
2017-10-21T11:20:36.333Z,7392
2017-10-21T11:21:36.298Z,7332
2017-10-21T11:22:36.330Z,7216
2017-10-21T11:23:39.016Z,7184
2017-10-21T11:24:36.673Z,7052
2017-10-21T11:25:36.359Z,7056
2017-10-21T11:26:36.671Z,7112
2017-10-21T11:27:36.700Z,7092
2017-10-21T11:28:36.332Z,6816
2017-10-21T11:29:36.397Z,6480
2017-10-21T11:30:36.683Z,6240
2017-10-21T11:31:36.673Z,6172
2017-10-21T11:32:36.055Z,6196
2017-10-21T11:33:36.033Z,6236
2017-10-21T11:34:36.046Z,6176
2017-10-21T11:35:36.693Z,6136
2017-10-21T11:36:36.384Z,6168
2017-10-21T11:37:36.393Z,6256
2017-10-21T11:38:36.400Z,6512
2017-10-21T11:39:36.745Z,6756
2017-10-21T11:40:36.406Z,6908
2017-10-21T11:41:36.737Z,7084
2017-10-21T11:42:36.395Z,7276
2017-10-21T11:43:36.410Z,7432
2017-10-21T11:44:36.731Z,7512
2017-10-21T11:45:36.138Z,7544
2017-10-21T11:46:36.399Z,7592
2017-10-21T11:47:36.184Z,7584
2017-10-21T11:48:36.240Z,7328
2017-10-21T11:49:36.797Z,6836
2017-10-21T11:50:36.436Z,6480
2017-10-21T11:51:36.106Z,6240
2017-10-21T11:52:36.508Z,5872
2017-10-21T11:53:36.129Z,5456
2017-10-21T11:54:36.773Z,5040
2017-10-21T11:55:36.784Z,4728
2017-10-21T11:56:36.123Z,4500
2017-10-21T11:57:36.440Z,4340
2017-10-21T11:58:36.148Z,4224
2017-10-21T11:59:35.820Z,4176
2017-10-21T12:00:36.495Z,4176
2017-10-21T12:01:36.492Z,4164
2017-10-21T12:02:36.160Z,4132
2017-10-21T12:03:36.181Z,4072
2017-10-21T12:04:36.811Z,3984
2017-10-21T12:05:36.149Z,3888
2017-10-21T12:06:36.807Z,3796
2017-10-21T12:07:36.832Z,3736
2017-10-21T12:08:36.485Z,3688
2017-10-21T12:09:36.498Z,3652
2017-10-21T12:10:36.887Z,3592
2017-10-21T12:11:36.536Z,3400
2017-10-21T12:12:36.562Z,3260
2017-10-21T12:13:36.183Z,3168
2017-10-21T12:14:36.839Z,3060
2017-10-21T12:15:36.177Z,2924
2017-10-21T12:16:35.860Z,2808
2017-10-21T12:17:36.847Z,2716
2017-10-21T12:18:36.528Z,2640
2017-10-21T12:19:36.879Z,2472
2017-10-21T12:20:36.194Z,2260
2017-10-21T12:21:36.539Z,2100
2017-10-21T12:22:36.880Z,2016
2017-10-21T12:23:36.205Z,1944
2017-10-21T12:24:36.262Z,1964
2017-10-21T12:25:36.252Z,2068
2017-10-21T12:26:36.859Z,2232
2017-10-21T12:27:36.549Z,2536
2017-10-21T12:28:36.220Z,2896
2017-10-21T12:29:36.248Z,3256
2017-10-21T12:30:36.576Z,3736
2017-10-21T12:31:36.557Z,4104
2017-10-21T12:32:36.569Z,4468
2017-10-21T12:33:36.572Z,4720
2017-10-21T12:34:36.576Z,4856
2017-10-21T12:35:36.562Z,4940
2017-10-21T12:36:36.574Z,5036
2017-10-21T12:37:36.587Z,5112
2017-10-21T12:38:36.592Z,5092
2017-10-21T12:39:36.261Z,5000
2017-10-21T12:40:36.610Z,4852
2017-10-21T12:41:36.934Z,4620
2017-10-21T12:42:36.587Z,4332
2017-10-21T12:43:36.273Z,4072
2017-10-21T12:44:36.601Z,3876
2017-10-21T12:45:36.276Z,3696
2017-10-21T12:46:36.931Z,3644
2017-10-21T12:47:36.945Z,3668
2017-10-21T12:48:36.635Z,3740
2017-10-21T12:49:36.927Z,3732
2017-10-21T12:50:36.622Z,3880
2017-10-21T12:51:36.825Z,3948
2017-10-21T12:52:36.673Z,4032
2017-10-21T12:53:36.939Z,3916
2017-10-21T12:54:37.399Z,3580
2017-10-21T12:55:36.311Z,3336
2017-10-21T12:56:36.644Z,3344
2017-10-21T12:57:35.990Z,3556
2017-10-21T12:58:36.971Z,4012
2017-10-21T12:59:36.367Z,4384
2017-10-21T13:00:36.351Z,4528
2017-10-21T13:01:36.337Z,4744
2017-10-21T13:02:36.980Z,5012
2017-10-21T13:03:36.970Z,5316
2017-10-21T13:04:36.980Z,5672
2017-10-21T13:05:36.664Z,5912
2017-10-21T13:06:36.360Z,5872
2017-10-21T13:07:36.374Z,5652
2017-10-21T13:08:37.009Z,5448
2017-10-21T13:09:36.693Z,5192
2017-10-21T13:10:36.374Z,4900
2017-10-21T13:11:36.684Z,4632
2017-10-21T13:12:36.704Z,4452
2017-10-21T13:13:36.397Z,4288
2017-10-21T13:14:37.030Z,4028
2017-10-21T13:15:36.706Z,3816
2017-10-21T13:16:37.074Z,3684
2017-10-21T13:17:36.766Z,3676
2017-10-21T13:18:36.406Z,3576
2017-10-21T13:19:36.407Z,3484
2017-10-21T13:20:36.734Z,3244
2017-10-21T13:21:36.417Z,2968
2017-10-21T13:22:36.411Z,2648
2017-10-21T13:23:36.774Z,2472
2017-10-21T13:24:36.100Z,2520
2017-10-21T13:25:36.427Z,2760
2017-10-21T13:26:36.766Z,2876
2017-10-21T13:27:37.061Z,2900
2017-10-21T13:28:37.141Z,3004
2017-10-21T13:29:36.427Z,3320
2017-10-21T13:30:37.065Z,3696
2017-10-21T13:31:36.467Z,3936
2017-10-21T13:32:36.756Z,4112
2017-10-21T13:33:36.780Z,4340
2017-10-21T13:34:36.140Z,4552
2017-10-21T13:35:36.783Z,4640
2017-10-21T13:36:36.501Z,4668
2017-10-21T13:37:36.469Z,4632
2017-10-21T13:38:36.815Z,4356
2017-10-21T13:39:37.121Z,4108
2017-10-21T13:40:36.473Z,4052
2017-10-21T13:41:36.225Z,4168
2017-10-21T13:42:36.511Z,4180
2017-10-21T13:43:37.128Z,3944
2017-10-21T13:44:36.806Z,3732
2017-10-21T13:45:36.804Z,3812
2017-10-21T13:46:36.515Z,4044
2017-10-21T13:47:37.144Z,4204
2017-10-21T13:48:37.134Z,4316
2017-10-21T13:49:36.497Z,4136
2017-10-21T13:50:37.138Z,3928
2017-10-21T13:51:36.820Z,3864
2017-10-21T13:52:36.823Z,3796
2017-10-21T13:53:36.509Z,3932